Terminal Aerodrome Forecast
Issued by NWS Wilmington, NC

Home | Current Version | Previous Version | Text Only | Print | Product List | Glossary On
Versions: 1 2 3 4 5 6 7 8 9 10 11 12 13 14 15 16 17 18
000
FTUS42 KILM 170500
TAFMYR
TAF
KMYR 170523Z 1706/1806 03010KT P6SM SCT035
     FM171400 04014G20KT P6SM FEW020 SCT040
     FM171900 04013G19KT P6SM SCT020 BKN040
     FM180200 03010KT P6SM BKN020
      AMD LTD TO CLD VIS AND WIND TIL 171100=

USA.gov is the U.S. government's official web portal to all federal, state and local government web resources and services.